Time;durP1;ratioP1;P1;durP2;ratioP2;P2;SDS_P1;SDS_P2;PMS_P1;PMS_P2;Temp;Humidity;BMP_temperature;BMP_pressure;BME280_temperature;BME280_humidity;BME280_pressure;Samples;Min_cycle;Max_cycle;Signal;HPM_P1;HPM_P2
2021/03/22 00:00:00;;;;;;;18.40;2.47;;;3.90;92.40;;;;;;5066959;28;20049;-74
2021/03/22 00:02:27;;;;;;;16.27;2.27;;;3.90;92.50;;;;;;5071952;28;20043;-77
2021/03/22 00:04:53;;;;;;;20.03;2.73;;;3.90;92.60;;;;;;5055075;28;20056;-76
2021/03/22 00:07:20;;;;;;;9.33;1.83;;;3.90;92.60;;;;;;5073906;28;20035;-76
2021/03/22 00:09:46;;;;;;;17.53;2.53;;;3.90;92.70;;;;;;5072389;28;20408;-76
2021/03/22 00:12:13;;;;;;;25.37;2.43;;;3.90;92.80;;;;;;5068985;28;20464;-77
2021/03/22 00:14:40;;;;;;;16.23;1.87;;;3.90;92.90;;;;;;5077787;28;20513;-76
2021/03/22 00:17:06;;;;;;;13.17;2.13;;;3.80;93.00;;;;;;5071108;28;20048;-76
2021/03/22 00:19:33;;;;;;;17.77;2.10;;;3.80;93.00;;;;;;5069718;28;20056;-78
2021/03/22 00:21:59;;;;;;;13.43;1.87;;;3.80;93.10;;;;;;5055963;28;20059;-78
2021/03/22 00:24:26;;;;;;;19.30;2.00;;;3.80;93.20;;;;;;5071695;28;20032;-79
2021/03/22 00:26:52;;;;;;;17.27;1.93;;;3.80;93.20;;;;;;5039383;28;20036;-77
2021/03/22 00:29:19;;;;;;;14.47;2.00;;;3.80;93.40;;;;;;5073456;28;20048;-78
2021/03/22 00:31:45;;;;;;;16.63;2.07;;;3.80;93.40;;;;;;5071489;28;20052;-78
2021/03/22 00:34:12;;;;;;;16.20;2.43;;;3.80;93.50;;;;;;5060780;28;20037;-77
2021/03/22 00:36:38;;;;;;;18.93;5.20;;;3.80;93.60;;;;;;5073779;28;20043;-77
2021/03/22 00:39:05;;;;;;;26.27;3.63;;;3.80;93.70;;;;;;5074348;28;20048;-77
2021/03/22 00:41:32;;;;;;;19.83;3.13;;;3.70;93.70;;;;;;5058068;28;20043;-80
2021/03/22 00:43:58;;;;;;;28.00;3.70;;;3.70;94.20;;;;;;5068546;28;20051;-77
2021/03/22 00:46:25;;;;;;;19.13;2.07;;;3.70;94.30;;;;;;5077150;28;20040;-77
2021/03/22 00:48:51;;;;;;;20.07;2.77;;;3.70;94.30;;;;;;5057238;28;20049;-77
2021/03/22 00:51:19;;;;;;;22.93;2.87;;;3.70;94.30;;;;;;5073116;28;20033;-77
2021/03/22 00:53:46;;;;;;;11.97;1.90;;;3.70;94.40;;;;;;5073442;28;20049;-77
2021/03/22 00:56:13;;;;;;;15.43;2.27;;;3.70;94.40;;;;;;5037649;28;20032;-77
2021/03/22 00:58:41;;;;;;;12.27;1.93;;;3.60;94.30;;;;;;5077394;28;20056;-77
2021/03/22 01:01:08;;;;;;;13.63;1.77;;;3.60;94.40;;;;;;5043638;28;20051;-77
2021/03/22 01:03:36;;;;;;;17.37;2.80;;;3.60;94.40;;;;;;5077466;28;20044;-77
2021/03/22 01:06:05;;;;;;;16.57;2.50;;;3.60;94.50;;;;;;5079334;28;20032;-77
2021/03/22 01:08:35;;;;;;;17.90;2.17;;;3.60;94.60;;;;;;5082663;28;20048;-77
2021/03/22 01:11:14;;;;;;;13.53;2.73;;;3.50;94.60;;;;;;5063400;28;20028;-76
2021/03/22 01:13:48;;;;;;;19.73;2.27;;;3.50;94.70;;;;;;5099391;28;20049;-77
2021/03/22 01:16:16;;;;;;;14.70;2.37;;;3.50;94.70;;;;;;5098858;28;20033;-77
2021/03/22 01:18:48;;;;;;;11.30;2.03;;;3.50;94.80;;;;;;5096605;28;20550;-78
2021/03/22 01:21:53;;;;;;;15.97;2.50;;;3.50;94.90;;;;;;5062012;28;20387;-77
2021/03/22 01:24:22;;;;;;;12.87;2.47;;;3.50;95.10;;;;;;5093104;28;20037;-77
2021/03/22 01:26:51;;;;;;;11.57;2.40;;;3.50;95.10;;;;;;5092149;28;20043;-77
2021/03/22 01:29:39;;;;;;;17.60;2.17;;;3.50;95.10;;;;;;5073650;28;20043;-77
2021/03/22 01:32:08;;;;;;;14.27;2.23;;;3.40;95.10;;;;;;5073477;28;20554;-77
2021/03/22 01:34:35;;;;;;;15.53;2.53;;;3.40;95.10;;;;;;5072801;28;20035;-77
2021/03/22 01:37:02;;;;;;;11.03;1.90;;;3.40;95.10;;;;;;5072576;28;20056;-77
2021/03/22 01:39:33;;;;;;;14.50;1.97;;;3.40;95.20;;;;;;5072268;28;20052;-77
2021/03/22 01:42:15;;;;;;;13.47;1.73;;;3.40;95.20;;;;;;5072256;28;20044;-77
2021/03/22 01:44:46;;;;;;;13.88;2.03;;;3.40;95.20;;;;;;5042095;28;20044;-77
2021/03/22 01:47:29;;;;;;;12.27;2.20;;;3.30;95.10;;;;;;5075094;28;20110;-77
2021/03/22 01:50:03;;;;;;;22.27;3.17;;;3.30;95.30;;;;;;5068144;28;20048;-77
2021/03/22 01:52:32;;;;;;;15.83;3.43;;;3.30;95.30;;;;;;5052217;28;20047;-77
2021/03/22 01:54:59;;;;;;;10.87;1.67;;;3.30;95.30;;;;;;5071109;28;20045;-77
2021/03/22 01:57:44;;;;;;;13.77;2.60;;;3.30;95.30;;;;;;5076124;28;20390;-77
2021/03/22 02:00:21;;;;;;;15.43;2.50;;;3.30;95.40;;;;;;5067853;28;20035;-76
2021/03/22 02:02:51;;;;;;;16.40;2.90;;;3.30;95.40;;;;;;5069987;28;20044;-78
2021/03/22 02:05:23;;;;;;;19.83;3.10;;;3.20;95.40;;;;;;5074814;28;20043;-77
2021/03/22 02:08:13;;;;;;;14.27;2.38;;;3.20;95.50;;;;;;5075167;28;20029;-77
2021/03/22 02:10:42;;;;;;;9.90;2.47;;;3.20;95.50;;;;;;5070786;28;20091;-77
2021/03/22 02:13:11;;;;;;;14.70;2.17;;;3.20;95.50;;;;;;5070967;28;20043;-77
2021/03/22 02:15:43;;;;;;;12.20;2.10;;;3.20;95.50;;;;;;5071456;28;20051;-77
2021/03/22 02:18:36;;;;;;;7.27;1.70;;;3.20;95.50;;;;;;5073357;28;20044;-76
2021/03/22 02:21:22;;;;;;;17.00;2.57;;;3.10;95.50;;;;;;5057409;28;20032;-77
2021/03/22 02:24:07;;;;;;;13.10;1.73;;;3.10;95.50;;;;;;5071731;28;20049;-77
2021/03/22 02:26:54;;;;;;;14.30;2.00;;;3.10;95.50;;;;;;5054853;28;20040;-77
2021/03/22 02:29:39;;;;;;;15.30;2.20;;;3.10;95.50;;;;;;5071722;28;20036;-77
2021/03/22 02:32:35;;;;;;;14.67;2.23;;;3.10;95.50;;;;;;5070425;28;20047;-77
2021/03/22 02:35:23;;;;;;;14.57;2.63;;;3.10;95.60;;;;;;5044020;28;20040;-77
2021/03/22 02:38:09;;;;;;;18.83;3.03;;;3.20;95.60;;;;;;5070438;28;20051;-77
2021/03/22 02:40:35;;;;;;;12.07;2.27;;;3.30;95.60;;;;;;5072430;28;20028;-77
2021/03/22 02:43:05;;;;;;;15.67;3.83;;;3.40;95.50;;;;;;5050234;28;20036;-77
2021/03/22 02:45:37;;;;;;;24.70;4.77;;;3.50;95.50;;;;;;5072170;28;20041;-77
2021/03/22 02:48:05;;;;;;;;;;;3.60;95.60;;;;;;5071159;28;20032;-77
2021/03/22 02:50:42;;;;;;;15.77;3.23;;;3.70;95.60;;;;;;5069290;28;19923;-77
2021/03/22 02:53:24;;;;;;;23.83;4.23;;;3.70;95.50;;;;;;5053587;28;20044;-77
2021/03/22 02:55:56;;;;;;;19.40;4.77;;;3.80;95.50;;;;;;5071726;28;20037;-77
2021/03/22 02:58:31;;;;;;;18.35;3.75;;;3.90;95.60;;;;;;5070379;28;20519;-76
2021/03/22 03:01:15;;;;;;;13.20;4.27;;;3.90;95.50;;;;;;5083325;28;20367;-77
2021/03/22 03:03:43;;;;;;;11.77;2.57;;;4.00;95.60;;;;;;5065434;28;20040;-77
2021/03/22 03:06:10;;;;;;;19.60;4.97;;;4.00;95.50;;;;;;5072396;28;20025;-77
2021/03/22 03:08:39;;;;;;;25.70;4.17;;;4.10;95.50;;;;;;5055616;28;20538;-77
2021/03/22 03:11:07;;;;;;;15.87;3.77;;;4.10;95.50;;;;;;5073742;28;20040;-77
2021/03/22 03:13:34;;;;;;;26.10;5.93;;;4.20;95.60;;;;;;5083602;28;20055;-77
2021/03/22 03:16:01;;;;;;;23.20;4.07;;;4.20;95.60;;;;;;5053072;28;20039;-77
2021/03/22 03:18:28;;;;;;;11.33;2.83;;;4.30;95.60;;;;;;5076406;28;20066;-77
2021/03/22 03:20:57;;;;;;;18.80;4.07;;;4.30;95.60;;;;;;5069060;28;20036;-77
2021/03/22 03:23:24;;;;;;;14.33;3.20;;;4.40;95.60;;;;;;5053397;28;20491;-77
2021/03/22 03:25:51;;;;;;;14.10;3.60;;;4.50;95.60;;;;;;5070906;28;20036;-77
2021/03/22 03:28:17;;;;;;;21.03;5.00;;;4.50;95.50;;;;;;5073752;28;20469;-77
2021/03/22 03:30:44;;;;;;;21.97;5.30;;;4.50;95.40;;;;;;5066180;28;20461;-78
2021/03/22 03:33:13;;;;;;;17.53;4.00;;;4.50;95.50;;;;;;5075242;28;20514;-77
2021/03/22 03:35:42;;;;;;;18.80;4.67;;;4.60;95.50;;;;;;5070781;28;20041;-77
2021/03/22 03:38:09;;;;;;;19.03;4.80;;;4.60;95.50;;;;;;5071217;28;20399;-77
2021/03/22 03:40:42;;;;;;;17.00;4.77;;;4.60;95.50;;;;;;5069391;28;20055;-77
2021/03/22 03:43:09;;;;;;;23.13;4.50;;;4.60;95.50;;;;;;5044236;28;20047;-77
2021/03/22 03:45:39;;;;;;;19.67;5.20;;;4.70;95.50;;;;;;5075812;28;20040;-77
2021/03/22 03:48:07;;;;;;;17.27;4.83;;;4.70;95.50;;;;;;5073102;28;20036;-77
2021/03/22 03:50:34;;;;;;;27.70;5.93;;;4.70;95.50;;;;;;5078279;28;20357;-77
2021/03/22 03:53:01;;;;;;;28.77;6.10;;;4.70;95.50;;;;;;5071786;28;20029;-77
2021/03/22 03:55:30;;;;;;;21.23;6.00;;;4.70;95.60;;;;;;5052491;28;20032;-77
2021/03/22 03:57:57;;;;;;;17.30;4.73;;;4.70;95.60;;;;;;5055793;28;20043;-77
2021/03/22 04:00:26;;;;;;;23.60;6.23;;;4.70;95.60;;;;;;5070986;28;20051;-77
2021/03/22 04:02:57;;;;;;;28.03;7.03;;;4.80;95.70;;;;;;5070385;28;20476;-77
2021/03/22 04:05:27;;;;;;;25.13;6.60;;;4.80;95.80;;;;;;5072540;28;20036;-77
2021/03/22 04:07:55;;;;;;;27.03;6.33;;;4.80;95.80;;;;;;5069479;28;20036;-77
2021/03/22 04:10:22;;;;;;;22.53;6.97;;;4.80;95.80;;;;;;5060213;28;20039;-77
2021/03/22 04:12:48;;;;;;;21.93;6.33;;;4.80;95.80;;;;;;5069376;28;20040;-77
2021/03/22 04:15:16;;;;;;;17.33;5.63;;;4.80;95.90;;;;;;5052366;28;20048;-77
2021/03/22 04:17:43;;;;;;;29.07;7.13;;;4.90;95.90;;;;;;5050810;28;20410;-77
2021/03/22 04:20:10;;;;;;;30.57;7.27;;;4.90;95.90;;;;;;5073507;28;20399;-77
2021/03/22 04:22:37;;;;;;;22.30;7.20;;;4.90;96.00;;;;;;5056952;28;20506;-77
2021/03/22 04:25:05;;;;;;;27.10;7.40;;;4.90;96.00;;;;;;5073278;28;20041;-77
2021/03/22 04:27:31;;;;;;;24.67;7.00;;;5.00;96.00;;;;;;5055005;28;20071;-77
2021/03/22 04:29:58;;;;;;;24.50;6.17;;;5.00;96.00;;;;;;5058325;28;20494;-77
2021/03/22 04:32:24;;;;;;;24.20;7.03;;;5.00;96.00;;;;;;5041923;28;20134;-77
2021/03/22 04:34:51;;;;;;;23.27;5.83;;;5.00;96.00;;;;;;5074057;28;20514;-77
2021/03/22 04:37:18;;;;;;;21.20;5.57;;;5.00;96.00;;;;;;5038584;28;20032;-77
2021/03/22 04:39:44;;;;;;;30.20;6.47;;;5.10;96.00;;;;;;5038150;28;20040;-77
2021/03/22 04:42:11;;;;;;;20.40;6.17;;;5.10;95.90;;;;;;5073431;28;20052;-77
2021/03/22 04:44:37;;;;;;;26.17;6.63;;;5.10;95.90;;;;;;5040119;28;20048;-77
2021/03/22 04:47:04;;;;;;;22.70;6.43;;;5.10;95.90;;;;;;5077482;28;20040;-77
2021/03/22 04:49:30;;;;;;;23.43;5.20;;;5.10;95.90;;;;;;5073820;28;20044;-77
2021/03/22 04:51:57;;;;;;;16.40;5.07;;;5.10;95.80;;;;;;5074159;28;20043;-77
2021/03/22 04:54:24;;;;;;;23.77;6.03;;;5.20;95.80;;;;;;5073820;28;20036;-77
2021/03/22 04:56:50;;;;;;;22.80;7.10;;;5.20;95.80;;;;;;5055607;28;20048;-77
2021/03/22 04:59:17;;;;;;;16.07;5.50;;;5.20;95.80;;;;;;5041617;28;20036;-77
2021/03/22 05:01:43;;;;;;;27.27;7.10;;;5.20;95.80;;;;;;5039565;28;20052;-77
2021/03/22 05:04:09;;;;;;;34.47;7.77;;;5.20;95.80;;;;;;5044646;28;20032;-77
2021/03/22 05:06:36;;;;;;;21.80;6.00;;;5.20;95.80;;;;;;5072949;28;20051;-77
2021/03/22 05:09:03;;;;;;;25.23;6.30;;;5.20;95.80;;;;;;5041480;28;20044;-77
2021/03/22 05:11:29;;;;;;;25.47;6.60;;;5.20;95.80;;;;;;5072984;28;20041;-77
2021/03/22 05:13:56;;;;;;;28.37;6.57;;;5.20;95.80;;;;;;5065854;28;20040;-77
2021/03/22 05:16:22;;;;;;;25.33;5.80;;;5.20;95.80;;;;;;5029400;28;20036;-77
2021/03/22 05:18:49;;;;;;;24.33;6.57;;;5.20;95.80;;;;;;5074507;28;20048;-77
2021/03/22 05:21:15;;;;;;;22.67;6.60;;;5.20;95.80;;;;;;5069407;28;20043;-77
2021/03/22 05:23:42;;;;;;;28.50;6.87;;;5.20;95.80;;;;;;5075884;28;20040;-77
2021/03/22 05:26:10;;;;;;;17.63;5.27;;;5.20;95.80;;;;;;5037719;28;20033;-77
2021/03/22 05:28:40;;;;;;;17.43;4.37;;;5.20;95.90;;;;;;5079110;28;20043;-76
2021/03/22 05:31:08;;;;;;;19.77;4.87;;;5.10;96.10;;;;;;5079037;28;20032;-77
2021/03/22 05:33:35;;;;;;;16.50;4.70;;;5.10;95.80;;;;;;5081170;28;20041;-77
2021/03/22 05:36:01;;;;;;;20.60;5.33;;;5.10;95.80;;;;;;5076826;28;20025;-77
2021/03/22 05:38:29;;;;;;;20.67;5.17;;;5.10;95.90;;;;;;5064691;28;20028;-77
2021/03/22 05:40:59;;;;;;;17.23;4.57;;;5.10;95.90;;;;;;5079206;28;20037;-73
2021/03/22 05:43:41;;;;;;;23.80;5.67;;;5.10;95.90;;;;;;5077061;28;20024;-75
2021/03/22 05:46:47;;;;;;;16.47;4.43;;;5.20;96.00;;;;;;5075616;28;20044;-75
2021/03/22 05:49:47;;;;;;;18.23;5.43;;;5.20;95.90;;;;;;5057969;28;20036;-74
2021/03/22 05:52:34;;;;;;;16.20;3.50;;;5.20;95.90;;;;;;5074733;28;20503;-75
2021/03/22 05:55:18;;;;;;;15.73;3.77;;;5.20;95.80;;;;;;5053215;28;20043;-75
2021/03/22 05:58:06;;;;;;;24.40;4.03;;;5.20;95.90;;;;;;5070648;28;20341;-74
2021/03/22 06:00:43;;;;;;;17.77;3.77;;;5.30;95.90;;;;;;5055765;28;20046;-74
2021/03/22 06:03:42;;;;;;;16.70;3.20;;;5.30;96.10;;;;;;5071279;28;20032;-74
2021/03/22 06:06:11;;;;;;;12.20;3.23;;;5.40;95.90;;;;;;5072554;28;20475;-75
2021/03/22 06:08:59;;;;;;;18.73;4.00;;;5.40;95.80;;;;;;5051149;28;20040;-74
2021/03/22 06:12:06;;;;;;;16.20;2.90;;;5.40;95.90;;;;;;5073170;28;20037;-75
2021/03/22 06:15:00;;;;;;;13.17;2.43;;;5.50;95.90;;;;;;5030875;28;20056;-75
2021/03/22 06:17:29;;;;;;;;;;;5.50;95.90;;;;;;5073400;28;20044;-75
2021/03/22 06:19:59;;;;;;;12.40;2.43;;;5.50;95.80;;;;;;5076517;28;19928;-75
2021/03/22 06:22:29;;;;;;;13.90;2.87;;;5.60;95.80;;;;;;5077849;28;20041;-75
2021/03/22 06:25:13;;;;;;;16.47;2.87;;;5.60;95.80;;;;;;5056155;28;20051;-75
2021/03/22 06:27:39;;;;;;;12.97;2.27;;;5.70;95.90;;;;;;5074152;28;20054;-75
2021/03/22 06:30:08;;;;;;;7.63;1.67;;;5.80;95.90;;;;;;5077314;28;20032;-75
2021/03/22 06:32:44;;;;;;;14.53;2.43;;;6.00;95.70;;;;;;5075231;28;20061;-76
2021/03/22 06:35:33;;;;;;;17.33;2.90;;;6.10;95.60;;;;;;5073111;28;20044;-75
2021/03/22 06:38:00;;;;;;;12.90;2.30;;;6.20;95.60;;;;;;5073875;28;20051;-76
2021/03/22 06:40:26;;;;;;;10.83;2.70;;;6.40;95.60;;;;;;5044379;28;20040;-75
2021/03/22 06:43:18;;;;;;;18.47;2.80;;;6.50;95.40;;;;;;5075876;28;20047;-75
2021/03/22 06:45:48;;;;;;;12.13;2.70;;;6.60;95.20;;;;;;5059646;28;20387;-75
2021/03/22 06:48:25;;;;;;;19.00;3.13;;;6.70;95.00;;;;;;5077039;28;20460;-75
2021/03/22 06:51:15;;;;;;;16.92;2.10;;;6.60;95.00;;;;;;5076652;28;20032;-75
2021/03/22 06:53:46;;;;;;;14.55;2.35;;;6.60;95.00;;;;;;5074529;28;20059;-75
2021/03/22 06:56:17;;;;;;;10.20;1.70;;;6.50;95.10;;;;;;5055508;28;20055;-75
2021/03/22 06:58:45;;;;;;;11.50;1.80;;;6.50;95.10;;;;;;5083677;28;20039;-74
2021/03/22 07:01:14;;;;;;;12.30;2.47;;;6.60;95.20;;;;;;5083722;28;20044;-75
2021/03/22 07:03:40;;;;;;;10.18;1.98;;;6.60;95.20;;;;;;5055319;28;20434;-74
2021/03/22 07:06:27;;;;;;;12.13;1.92;;;6.70;95.10;;;;;;5063262;28;20071;-75
2021/03/22 07:08:53;;;;;;;12.55;1.77;;;6.80;95.10;;;;;;5075037;28;20393;-75
2021/03/22 07:11:23;;;;;;;12.63;2.08;;;6.90;95.00;;;;;;5075176;28;20067;-74
2021/03/22 07:14:04;;;;;;;6.35;1.27;;;7.00;94.80;;;;;;5054679;28;20040;-74
2021/03/22 07:16:32;;;;;;;13.82;2.47;;;7.10;94.70;;;;;;5081961;28;20118;-75
2021/03/22 07:19:07;;;;;;;7.63;1.55;;;7.00;94.60;;;;;;5072791;28;20035;-75
2021/03/22 07:21:57;;;;;;;10.60;1.80;;;7.10;94.60;;;;;;5071084;28;21410;-74
2021/03/22 07:24:43;;;;;;;10.95;1.65;;;7.00;94.50;;;;;;5053264;28;20036;-74
2021/03/22 07:27:29;;;;;;;12.20;1.85;;;7.00;94.60;;;;;;5073493;28;20035;-74
2021/03/22 07:30:34;;;;;;;7.93;1.17;;;7.20;94.70;;;;;;5073125;28;20110;-74
2021/03/22 07:33:19;;;;;;;8.32;1.48;;;7.40;94.60;;;;;;5052362;28;20551;-75
2021/03/22 07:36:02;;;;;;;8.73;1.58;;;7.70;94.40;;;;;;5072774;28;20044;-75
2021/03/22 07:39:10;;;;;;;9.20;1.73;;;7.80;94.10;;;;;;5068970;28;20045;-75
2021/03/22 07:42:02;;;;;;;13.57;2.08;;;7.80;93.70;;;;;;5070154;28;20051;-74
2021/03/22 07:44:51;;;;;;;10.40;2.08;;;7.80;93.40;;;;;;5072737;28;20483;-75
2021/03/22 07:47:26;;;;;;;7.75;1.20;;;7.60;93.30;;;;;;5057842;28;20035;-76
2021/03/22 07:49:56;;;;;;;10.65;1.55;;;7.60;93.60;;;;;;5071807;28;20032;-77
2021/03/22 07:52:41;;;;;;;8.60;1.40;;;7.60;93.60;;;;;;5071595;28;20048;-75
2021/03/22 07:55:39;;;;;;;12.10;1.45;;;7.60;93.50;;;;;;5067766;28;20399;-75
2021/03/22 07:58:33;;;;;;;5.32;1.17;;;7.60;93.60;;;;;;5064942;28;20063;-75
2021/03/22 08:01:03;;;;;;;8.93;0.90;;;7.60;93.60;;;;;;5075351;28;20066;-75
2021/03/22 08:03:51;;;;;;;4.95;1.20;;;7.60;93.60;;;;;;5071805;28;20053;-76
2021/03/22 08:06:26;;;;;;;11.02;3.08;;;7.70;93.60;;;;;;5073463;28;20101;-75
2021/03/22 08:09:13;;;;;;;11.20;2.35;;;7.80;93.40;;;;;;5075571;28;20039;-76
2021/03/22 08:11:54;;;;;;;9.07;1.50;;;7.80;93.50;;;;;;5071038;28;20044;-75
2021/03/22 08:14:37;;;;;;;5.45;0.98;;;7.80;93.30;;;;;;5079495;28;20483;-75
2021/03/22 08:17:35;;;;;;;4.43;0.88;;;7.80;93.20;;;;;;5057379;28;20047;-76
2021/03/22 08:20:17;;;;;;;7.40;0.77;;;7.70;93.20;;;;;;5064151;28;20054;-75
2021/03/22 08:23:02;;;;;;;11.23;4.68;;;7.70;93.20;;;;;;5070690;28;20033;-75
2021/03/22 08:25:50;;;;;;;8.55;1.25;;;7.60;93.20;;;;;;5075414;28;20482;-75
2021/03/22 08:28:38;;;;;;;5.65;1.40;;;7.60;93.30;;;;;;5071242;28;20032;-76
2021/03/22 08:31:24;;;;;;;3.17;0.60;;;7.50;93.40;;;;;;5074028;28;20491;-75
2021/03/22 08:34:23;;;;;;;6.38;0.70;;;7.50;93.60;;;;;;5069399;28;20427;-79
2021/03/22 08:36:56;;;;;;;4.30;0.60;;;7.60;93.60;;;;;;5043349;28;20044;-77
2021/03/22 08:39:34;;;;;;;3.88;0.80;;;7.60;93.50;;;;;;5073721;28;20035;-78
2021/03/22 08:42:24;;;;;;;3.58;0.60;;;7.70;93.70;;;;;;5073290;28;20040;-77
2021/03/22 08:45:16;;;;;;;3.03;0.68;;;7.90;93.80;;;;;;5069892;28;20035;-78
2021/03/22 08:48:25;;;;;;;4.57;0.60;;;8.40;93.00;;;;;;5070574;28;20024;-77
2021/03/22 08:50:53;;;;;;;4.38;0.90;;;8.70;92.80;;;;;;5073149;28;20032;-77
2021/03/22 08:53:24;;;;;;;6.85;0.90;;;8.90;92.10;;;;;;5074465;28;20049;-74
2021/03/22 08:55:59;;;;;;;4.13;0.80;;;9.00;91.80;;;;;;5056105;28;20424;-77
2021/03/22 08:58:31;;;;;;;2.97;0.65;;;9.00;91.60;;;;;;5072334;28;20043;-78
2021/03/22 09:01:07;;;;;;;4.18;0.50;;;9.00;91.40;;;;;;5069137;28;20024;-77
2021/03/22 09:03:39;;;;;;;5.65;1.10;;;8.90;91.40;;;;;;5050138;28;20040;-77
2021/03/22 09:06:17;;;;;;;2.45;0.70;;;9.00;91.20;;;;;;5059784;28;20040;-77
2021/03/22 09:08:50;;;;;;;3.92;1.13;;;8.90;91.00;;;;;;5080527;28;20039;-78
2021/03/22 09:11:31;;;;;;;5.97;0.90;;;8.90;91.00;;;;;;5075089;28;20043;-78
2021/03/22 09:13:59;;;;;;;3.88;0.63;;;8.80;90.70;;;;;;5070848;28;20507;-78
2021/03/22 09:16:25;;;;;;;2.55;0.50;;;8.70;90.90;;;;;;5055070;28;20379;-77
2021/03/22 09:19:11;;;;;;;2.80;0.50;;;8.60;90.80;;;;;;5066779;28;20036;-78
2021/03/22 09:21:42;;;;;;;1.92;0.50;;;8.60;90.60;;;;;;5076829;28;20052;-78
2021/03/22 09:24:43;;;;;;;5.85;1.73;;;8.60;90.60;;;;;;5061665;28;20029;-77
2021/03/22 09:27:24;;;;;;;7.03;3.58;;;8.60;90.70;;;;;;5076340;28;20040;-76
2021/03/22 09:30:01;;;;;;;2.13;0.70;;;8.60;90.70;;;;;;5061619;28;20036;-76
2021/03/22 09:32:34;;;;;;;1.95;0.60;;;8.80;90.80;;;;;;5074320;28;20048;-77
2021/03/22 09:35:05;;;;;;;2.92;0.50;;;8.90;90.40;;;;;;5079796;28;20039;-77
2021/03/22 09:37:51;;;;;;;2.05;0.50;;;9.10;90.30;;;;;;5058393;28;20040;-76
2021/03/22 09:40:21;;;;;;;2.97;0.43;;;9.30;90.10;;;;;;5089862;28;20037;-76
2021/03/22 09:43:06;;;;;;;3.80;0.50;;;9.60;90.10;;;;;;5066532;28;20036;-77
2021/03/22 09:45:57;;;;;;;3.08;0.45;;;9.80;88.90;;;;;;5087407;28;20037;-76
2021/03/22 09:48:34;;;;;;;3.55;1.02;;;10.00;88.50;;;;;;5048721;28;21155;-75
2021/03/22 09:51:01;;;;;;;4.20;0.75;;;10.10;86.10;;;;;;5084978;28;20028;-76
2021/03/22 09:54:04;;;;;;;3.00;0.45;;;10.30;86.50;;;;;;5079598;28;20048;-76
2021/03/22 09:56:35;;;;;;;1.27;0.30;;;10.50;85.90;;;;;;4985919;28;20033;-76
2021/03/22 09:59:20;;;;;;;4.22;0.50;;;10.80;85.70;;;;;;5063537;28;20048;-76
2021/03/22 10:01:47;;;;;;;1.73;0.30;;;10.90;82.90;;;;;;5056479;28;20043;-76
2021/03/22 10:04:17;;;;;;;3.40;0.52;;;10.70;81.90;;;;;;5054443;28;20051;-76
2021/03/22 10:06:56;;;;;;;2.78;0.40;;;10.40;81.90;;;;;;5074263;28;20509;-79
2021/03/22 10:09:49;;;;;;;4.03;0.40;;;10.00;83.10;;;;;;5069015;28;20032;-79
2021/03/22 10:12:41;;;;;;;2.85;0.40;;;9.90;84.20;;;;;;5075830;28;20066;-79
2021/03/22 10:15:14;;;;;;;1.40;0.20;;;9.80;84.70;;;;;;5069591;28;20056;-79
2021/03/22 10:18:06;;;;;;;4.57;0.50;;;9.70;84.90;;;;;;5074091;28;20075;-79
2021/03/22 10:20:48;;;;;;;4.60;0.50;;;9.60;85.20;;;;;;5064788;28;20040;-79
2021/03/22 10:23:24;;;;;;;4.15;0.50;;;9.50;86.00;;;;;;5072344;28;20507;-79
2021/03/22 10:26:02;;;;;;;4.20;0.40;;;9.40;86.70;;;;;;5073659;28;20040;-79
2021/03/22 10:28:28;;;;;;;3.25;0.40;;;9.40;86.30;;;;;;5073448;28;20688;-79
2021/03/22 10:30:59;;;;;;;2.65;0.40;;;9.40;86.30;;;;;;5070730;28;20040;-77
2021/03/22 10:33:27;;;;;;;3.20;0.30;;;9.40;86.20;;;;;;5074516;28;20048;-77
2021/03/22 10:35:57;;;;;;;2.45;0.30;;;9.50;86.30;;;;;;5053233;28;20040;-76
2021/03/22 10:38:35;;;;;;;2.78;0.40;;;9.70;86.20;;;;;;5076107;28;20498;-79
2021/03/22 10:41:04;;;;;;;5.30;1.42;;;9.80;85.30;;;;;;5073388;28;20430;-78
2021/03/22 10:43:39;;;;;;;4.10;0.57;;;9.90;84.60;;;;;;5074812;28;20029;-77
2021/03/22 10:46:25;;;;;;;4.93;0.95;;;10.00;84.00;;;;;;5061600;28;20033;-77
2021/03/22 10:49:24;;;;;;;5.10;0.70;;;10.00;82.40;;;;;;5078433;28;20399;-78
2021/03/22 10:51:53;;;;;;;3.10;0.88;;;10.10;83.20;;;;;;5072224;28;20365;-77
2021/03/22 10:54:38;;;;;;;2.38;0.40;;;10.20;82.60;;;;;;5075124;28;20059;-77
2021/03/22 10:57:14;;;;;;;2.47;0.30;;;10.50;83.70;;;;;;5070417;28;20032;-77
2021/03/22 10:59:43;;;;;;;3.47;0.20;;;11.30;83.20;;;;;;5075134;28;20040;-77
2021/03/22 11:02:28;;;;;;;1.98;0.25;;;11.90;76.20;;;;;;5072978;28;20047;-77
2021/03/22 11:04:56;;;;;;;1.95;0.30;;;12.10;74.90;;;;;;5076956;28;20040;-77
2021/03/22 11:07:25;;;;;;;2.88;0.30;;;12.00;73.60;;;;;;5066293;28;20040;-77
2021/03/22 11:10:02;;;;;;;1.83;0.22;;;11.80;73.10;;;;;;5072833;28;20036;-77
2021/03/22 11:12:31;;;;;;;0.85;0.20;;;11.50;71.70;;;;;;5073189;28;20044;-77
2021/03/22 11:15:12;;;;;;;1.80;0.20;;;11.20;72.20;;;;;;5072419;28;20056;-77
2021/03/22 11:17:42;;;;;;;1.27;0.15;;;11.00;72.30;;;;;;5074189;28;20063;-77
2021/03/22 11:20:18;;;;;;;2.00;0.20;;;10.80;73.10;;;;;;5071455;28;20059;-77
2021/03/22 11:22:47;;;;;;;3.25;0.50;;;10.70;74.00;;;;;;5070471;28;20121;-77
2021/03/22 11:25:29;;;;;;;3.95;0.20;;;10.60;74.70;;;;;;5072170;28;20036;-77
2021/03/22 11:28:07;;;;;;;3.65;0.30;;;10.50;74.80;;;;;;5070965;28;20041;-77
2021/03/22 11:30:41;;;;;;;1.67;0.20;;;10.30;75.70;;;;;;5076159;28;20036;-77
2021/03/22 11:33:26;;;;;;;4.70;0.70;;;10.30;76.60;;;;;;5068334;28;20514;-77
2021/03/22 11:36:13;;;;;;;6.05;0.50;;;10.20;76.70;;;;;;5075060;28;20043;-77
2021/03/22 11:39:07;;;;;;;0.93;0.30;;;10.10;76.80;;;;;;5054334;28;20047;-77
2021/03/22 11:41:36;;;;;;;2.85;0.35;;;10.00;76.70;;;;;;5075281;28;20051;-77
2021/03/22 11:44:32;;;;;;;4.22;0.40;;;9.90;77.20;;;;;;5074312;28;20475;-77
2021/03/22 11:47:35;;;;;;;3.08;0.45;;;9.90;77.40;;;;;;5057165;28;20068;-77
2021/03/22 11:50:36;;;;;;;2.97;0.40;;;9.90;77.50;;;;;;5049791;28;20043;-77
2021/03/22 11:53:05;;;;;;;4.18;0.30;;;10.00;77.60;;;;;;5070565;28;20480;-78
2021/03/22 11:55:43;;;;;;;6.35;0.30;;;10.00;77.70;;;;;;5061010;28;20041;-77
2021/03/22 11:58:30;;;;;;;1.95;0.20;;;10.10;77.80;;;;;;5073597;28;20025;-79
2021/03/22 12:01:15;;;;;;;3.08;0.38;;;10.20;77.60;;;;;;5072537;28;20036;-77
2021/03/22 12:03:43;;;;;;;5.00;0.40;;;10.20;77.10;;;;;;5066142;28;20055;-79
2021/03/22 12:06:12;;;;;;;1.80;0.30;;;10.20;77.40;;;;;;5063404;28;20035;-80
2021/03/22 12:08:40;;;;;;;2.20;0.20;;;10.30;77.70;;;;;;5057860;28;20043;-80
2021/03/22 12:11:23;;;;;;;1.75;0.20;;;10.40;77.30;;;;;;5074068;28;20028;-80
2021/03/22 12:13:52;;;;;;;1.55;0.20;;;10.40;76.70;;;;;;5055607;28;20049;-80
2021/03/22 12:16:31;;;;;;;2.63;0.30;;;10.50;75.00;;;;;;5074858;28;20040;-80
2021/03/22 12:19:03;;;;;;;1.60;0.15;;;10.50;74.90;;;;;;5050104;28;20360;-79
2021/03/22 12:21:30;;;;;;;3.00;0.30;;;10.60;74.80;;;;;;5067833;28;20036;-79
2021/03/22 12:23:58;;;;;;;1.25;0.20;;;10.70;73.90;;;;;;5077253;28;20055;-78
2021/03/22 12:26:24;;;;;;;1.20;0.13;;;10.90;74.00;;;;;;5060990;28;20037;-78
2021/03/22 12:28:54;;;;;;;1.50;0.20;;;11.00;73.20;;;;;;5048518;28;20037;-78
2021/03/22 12:31:24;;;;;;;10.30;6.72;;;11.20;72.70;;;;;;5072830;28;20487;-77
2021/03/22 12:33:51;;;;;;;2.15;0.60;;;11.30;70.90;;;;;;5074419;28;20049;-80
2021/03/22 12:36:18;;;;;;;4.22;0.98;;;11.50;69.60;;;;;;5048968;28;20495;-77
2021/03/22 12:38:45;;;;;;;3.35;0.50;;;11.60;69.80;;;;;;5073465;28;20033;-77
2021/03/22 12:41:28;;;;;;;1.80;0.20;;;11.70;69.60;;;;;;5061426;28;20055;-77
2021/03/22 12:43:57;;;;;;;1.08;0.20;;;11.70;68.60;;;;;;5076168;28;20040;-77
2021/03/22 12:46:24;;;;;;;0.82;0.20;;;11.80;68.00;;;;;;5063011;28;20032;-77
2021/03/22 12:48:52;;;;;;;0.60;0.10;;;11.80;66.50;;;;;;5077989;28;20040;-77
2021/03/22 12:51:20;;;;;;;3.38;0.30;;;11.70;65.90;;;;;;5073080;28;20513;-77
2021/03/22 12:53:46;;;;;;;2.35;0.17;;;11.80;66.20;;;;;;5082591;28;20034;-77
2021/03/22 12:56:14;;;;;;;1.95;0.30;;;11.80;66.30;;;;;;5077513;28;20035;-77
2021/03/22 12:58:41;;;;;;;1.40;0.40;;;11.70;66.30;;;;;;5072156;28;20483;-77
2021/03/22 13:01:13;;;;;;;1.13;0.20;;;11.60;65.90;;;;;;5057832;28;20079;-77
2021/03/22 13:03:40;;;;;;;0.93;0.10;;;11.50;65.60;;;;;;5059941;28;20395;-77
2021/03/22 13:06:06;;;;;;;0.45;0.15;;;11.60;66.20;;;;;;5078537;28;20051;-75
2021/03/22 13:08:33;;;;;;;1.60;0.20;;;11.50;66.10;;;;;;5076467;28;20043;-78
2021/03/22 13:11:00;;;;;;;1.02;0.40;;;11.50;66.20;;;;;;5060215;28;20033;-78
2021/03/22 13:13:26;;;;;;;1.63;0.40;;;11.50;66.30;;;;;;5076912;28;20040;-78
2021/03/22 13:15:54;;;;;;;1.95;0.30;;;11.40;66.20;;;;;;5077305;28;20049;-78
2021/03/22 13:18:26;;;;;;;0.98;0.20;;;11.40;66.10;;;;;;5076609;28;20505;-78
2021/03/22 13:20:55;;;;;;;4.00;0.30;;;11.30;66.60;;;;;;5058556;28;20067;-78
2021/03/22 13:23:24;;;;;;;1.42;0.30;;;11.40;66.50;;;;;;5063431;28;20394;-78
2021/03/22 13:25:51;;;;;;;2.00;0.30;;;11.40;66.60;;;;;;5063971;28;20032;-78
2021/03/22 13:28:24;;;;;;;70.72;3.88;;;11.50;66.00;;;;;;5061835;28;20059;-78